Time;durP1;ratioP1;P1;durP2;ratioP2;P2;SDS_P1;SDS_P2;PMS_P1;PMS_P2;Temp;Humidity;BMP_temperature;BMP_pressure;BME280_temperature;BME280_humidity;BME280_pressure;Samples;Min_cycle;Max_cycle;Signal;HPM_P1;HPM_P2
2023/03/07 00:01:30;;;;;;;1.40;1.30;;;;;;;21.51;31.27;99520.56;5009995;28;20116;-82
2023/03/07 00:03:57;;;;;;;1.10;1.10;;;;;;;21.50;31.38;99511.00;4992140;28;20766;-82
2023/03/07 00:06:23;;;;;;;1.20;1.10;;;;;;;21.45;31.44;99505.56;5021975;28;20041;-82
2023/03/07 00:08:55;;;;;;;1.13;1.13;;;;;;;21.44;31.14;99512.72;4995143;28;20041;-82
2023/03/07 00:11:21;;;;;;;0.90;0.90;;;;;;;21.47;31.42;99520.19;5025476;28;20045;-83
2023/03/07 00:13:47;;;;;;;1.27;1.17;;;;;;;21.40;31.31;99516.84;4993824;28;20048;-83
2023/03/07 00:16:16;;;;;;;0.88;0.88;;;;;;;21.36;31.20;99527.06;5016384;28;20124;-84
2023/03/07 00:18:43;;;;;;;;;;;;;;;21.45;31.43;99527.56;4993981;28;20049;-82
2023/03/07 00:21:12;;;;;;;1.15;1.10;;;;;;;21.37;31.29;99518.09;5017090;28;19917;-82
2023/03/07 00:23:39;;;;;;;1.23;1.13;;;;;;;21.38;31.48;99519.72;4986401;28;20037;-82
2023/03/07 00:26:06;;;;;;;0.88;0.88;;;;;;;21.41;31.45;99518.44;5018064;28;20049;-83
2023/03/07 00:28:32;;;;;;;1.02;1.02;;;;;;;21.29;31.28;99496.38;4994803;28;20037;-82
2023/03/07 00:31:03;;;;;;;1.23;1.08;;;;;;;21.37;31.20;99512.78;5009385;28;20048;-83
2023/03/07 00:33:29;;;;;;;0.77;0.77;;;;;;;21.35;31.48;99503.44;5024631;28;20040;-82
2023/03/07 00:36:06;;;;;;;0.80;0.80;;;;;;;21.33;31.37;99500.19;4989902;28;20029;-83
2023/03/07 00:38:32;;;;;;;1.10;1.00;;;;;;;21.36;31.38;99505.03;5003719;28;20061;-83
2023/03/07 00:40:59;;;;;;;1.15;1.10;;;;;;;21.35;31.51;99509.53;4988190;28;20037;-82
2023/03/07 00:43:25;;;;;;;0.73;0.73;;;;;;;21.34;31.57;99497.31;5024200;28;20083;-83
2023/03/07 00:45:51;;;;;;;0.70;0.70;;;;;;;21.32;31.39;99498.56;4984127;28;20050;-82
2023/03/07 00:48:17;;;;;;;0.75;0.75;;;;;;;21.26;31.53;99488.88;5024909;28;20045;-83
2023/03/07 00:50:44;;;;;;;0.88;0.88;;;;;;;21.32;31.44;99499.38;4982515;28;20132;-82
2023/03/07 00:53:10;;;;;;;0.40;0.40;;;;;;;21.31;31.59;99500.41;5021877;28;20041;-82
2023/03/07 00:55:36;;;;;;;0.93;0.57;;;;;;;21.32;31.54;99502.03;4978877;28;20372;-82
2023/03/07 00:58:02;;;;;;;1.25;0.50;;;;;;;21.29;31.56;99497.19;5007297;28;20040;-82
2023/03/07 01:00:28;;;;;;;0.93;0.70;;;;;;;21.28;31.66;99492.13;4981431;28;20521;-84
2023/03/07 01:02:56;;;;;;;0.70;0.70;;;;;;;21.29;31.44;99496.38;4989289;28;20679;-82
2023/03/07 01:05:22;;;;;;;0.88;0.82;;;;;;;21.05;31.69;99456.50;4986051;28;20050;-83
2023/03/07 01:07:48;;;;;;;0.63;0.60;;;;;;;21.33;31.34;99489.59;4991061;28;20052;-82
2023/03/07 01:10:13;;;;;;;0.47;0.47;;;;;;;21.57;31.29;99488.72;4993171;28;20060;-83
2023/03/07 01:12:39;;;;;;;0.95;0.65;;;;;;;21.74;30.86;99474.84;5021667;28;20399;-82
2023/03/07 01:15:05;;;;;;;0.70;0.70;;;;;;;21.79;30.72;99472.31;4959178;28;20731;-82
2023/03/07 01:17:32;;;;;;;0.52;0.47;;;;;;;21.83;30.70;99468.19;5021843;28;20042;-82
2023/03/07 01:19:58;;;;;;;0.60;0.60;;;;;;;21.89;30.72;99483.19;4976747;28;20154;-83
2023/03/07 01:22:24;;;;;;;0.35;0.30;;;;;;;21.84;31.12;99478.56;5020018;28;20060;-83
2023/03/07 01:24:50;;;;;;;1.58;0.90;;;;;;;21.81;31.12;99475.56;4985254;28;20033;-82
2023/03/07 01:27:15;;;;;;;0.52;0.52;;;;;;;21.79;30.73;99467.03;5023651;28;20049;-82
2023/03/07 01:29:41;;;;;;;0.65;0.65;;;;;;;21.77;31.08;99469.91;4985052;28;20045;-83
2023/03/07 01:32:07;;;;;;;0.60;0.60;;;;;;;21.70;30.88;99463.88;5013408;28;20029;-83
2023/03/07 01:34:32;;;;;;;0.63;0.63;;;;;;;21.72;31.32;99467.09;5021813;28;20040;-83
2023/03/07 01:36:58;;;;;;;0.65;0.57;;;;;;;21.60;31.08;99460.97;4985197;28;20049;-83
2023/03/07 01:39:24;;;;;;;0.52;0.43;;;;;;;21.66;31.29;99466.16;5021171;28;20057;-82
2023/03/07 01:42:05;;;;;;;0.40;0.40;;;;;;;21.66;31.16;99468.00;4973792;28;20046;-85
2023/03/07 01:44:31;;;;;;;0.50;0.50;;;;;;;21.53;31.43;99445.16;5003774;28;20526;-83
2023/03/07 01:46:59;;;;;;;0.93;0.60;;;;;;;21.61;31.23;99463.38;4991015;28;20555;-83
2023/03/07 01:49:44;;;;;;;0.95;0.70;;;;;;;21.62;31.32;99459.72;5021641;28;20046;-83
2023/03/07 01:52:24;;;;;;;0.57;0.57;;;;;;;21.46;31.24;99439.13;4985251;28;20103;-82
2023/03/07 01:54:57;;;;;;;0.98;0.32;;;;;;;21.55;31.24;99443.09;5020610;28;20416;-82
2023/03/07 01:57:27;;;;;;;0.68;0.68;;;;;;;21.58;31.09;99450.59;4989138;28;20566;-82
2023/03/07 01:59:57;;;;;;;0.65;0.60;;;;;;;21.56;31.50;99442.06;5020319;28;20029;-82
2023/03/07 02:02:24;;;;;;;0.32;0.32;;;;;;;21.52;31.63;99435.59;4979941;28;20042;-82
2023/03/07 02:04:56;;;;;;;0.60;0.50;;;;;;;21.54;31.32;99438.81;5026521;28;20041;-82
2023/03/07 02:07:27;;;;;;;0.60;0.60;;;;;;;21.56;31.47;99433.31;4980400;28;20699;-82
2023/03/07 02:09:54;;;;;;;0.75;0.75;;;;;;;21.48;31.63;99423.81;5022095;28;20037;-83
2023/03/07 02:12:20;;;;;;;1.02;0.68;;;;;;;21.52;31.56;99432.13;4977215;28;20045;-83
2023/03/07 02:14:48;;;;;;;0.60;0.60;;;;;;;21.43;31.25;99418.41;5019878;28;20739;-82
2023/03/07 02:17:14;;;;;;;0.30;0.30;;;;;;;21.50;31.45;99434.19;4980792;28;20045;-83
2023/03/07 02:19:58;;;;;;;0.40;0.40;;;;;;;21.50;31.37;99426.25;5020165;28;20075;-82
2023/03/07 02:22:24;;;;;;;0.50;0.50;;;;;;;21.48;31.71;99415.88;4962552;28;20094;-83
2023/03/07 02:24:52;;;;;;;0.57;0.52;;;;;;;21.33;31.41;99396.94;5005489;28;20034;-82
2023/03/07 02:27:18;;;;;;;0.25;0.25;;;;;;;21.38;31.46;99405.84;4995807;28;20045;-83
2023/03/07 02:29:44;;;;;;;0.55;0.40;;;;;;;21.46;31.57;99411.84;5014832;28;20108;-83
2023/03/07 02:32:11;;;;;;;0.73;0.52;;;;;;;21.46;31.59;99407.34;4974685;28;20092;-83
2023/03/07 02:34:36;;;;;;;0.45;0.45;;;;;;;21.39;31.48;99390.75;5021777;28;20073;-83
2023/03/07 02:37:24;;;;;;;0.47;0.47;;;;;;;21.43;31.45;99402.50;4971441;28;20140;-83
2023/03/07 02:39:50;;;;;;;0.43;0.43;;;;;;;21.43;31.61;99405.16;5018349;28;20029;-83
2023/03/07 02:42:24;;;;;;;0.82;0.82;;;;;;;21.29;31.59;99383.34;4968124;28;20061;-82
2023/03/07 02:45:02;;;;;;;0.35;0.35;;;;;;;21.38;31.76;99397.91;5000536;28;20384;-83
2023/03/07 02:47:31;;;;;;;0.28;0.28;;;;;;;21.34;31.72;99388.75;4973938;28;20040;-82
2023/03/07 02:49:58;;;;;;;0.75;0.50;;;;;;;21.35;31.52;99390.38;5021366;28;20079;-82
2023/03/07 02:52:26;;;;;;;0.55;0.43;;;;;;;21.32;31.65;99390.81;4965767;28;20050;-83
2023/03/07 02:54:52;;;;;;;1.08;0.43;;;;;;;21.35;31.67;99386.91;5012418;28;20037;-83
2023/03/07 02:57:18;;;;;;;1.15;0.73;;;;;;;21.37;31.51;99392.81;4985332;28;20111;-83
2023/03/07 02:59:44;;;;;;;0.88;0.60;;;;;;;21.32;31.73;99396.13;5022250;28;20044;-82
2023/03/07 03:02:10;;;;;;;0.75;0.52;;;;;;;21.31;31.59;99391.06;4952477;28;20041;-82
2023/03/07 03:04:36;;;;;;;0.38;0.38;;;;;;;21.35;31.55;99393.03;5025988;28;20490;-83
2023/03/07 03:07:01;;;;;;;0.22;0.22;;;;;;;21.34;31.67;99396.69;4967961;28;20076;-83
2023/03/07 03:09:28;;;;;;;1.65;0.90;;;;;;;21.24;31.77;99377.91;5023992;28;20095;-82
2023/03/07 03:11:53;;;;;;;0.45;0.38;;;;;;;21.24;31.41;99379.72;4970670;28;20733;-82
2023/03/07 03:14:22;;;;;;;0.95;0.57;;;;;;;21.35;31.49;99392.22;5007444;28;20037;-82
2023/03/07 03:16:51;;;;;;;0.57;0.52;;;;;;;21.29;31.74;99388.63;4961302;28;20056;-82
2023/03/07 03:19:16;;;;;;;1.13;0.45;;;;;;;21.33;31.77;99397.75;5019227;28;20057;-83
2023/03/07 03:21:42;;;;;;;0.40;0.40;;;;;;;21.27;31.82;99389.88;4991634;28;20037;-82
2023/03/07 03:24:09;;;;;;;0.82;0.55;;;;;;;21.31;31.57;99391.06;4998307;28;20364;-82
2023/03/07 03:26:36;;;;;;;1.85;0.50;;;;;;;21.31;31.59;99399.81;5001640;28;20025;-82
2023/03/07 03:29:04;;;;;;;0.73;0.35;;;;;;;21.33;31.68;99399.56;5015189;28;20033;-82
2023/03/07 03:31:31;;;;;;;1.65;0.73;;;;;;;21.43;31.60;99397.22;4997930;28;20041;-83
2023/03/07 03:33:58;;;;;;;0.22;0.22;;;;;;;21.64;31.17;99393.25;5005587;28;20364;-82
2023/03/07 03:36:26;;;;;;;0.52;0.40;;;;;;;21.78;30.96;99401.81;5023276;28;20025;-82
2023/03/07 03:38:58;;;;;;;0.80;0.35;;;;;;;21.72;31.17;99387.63;4981662;28;20474;-82
2023/03/07 03:41:24;;;;;;;1.08;0.65;;;;;;;21.58;31.01;99372.97;5024180;28;20025;-82
2023/03/07 03:43:50;;;;;;;0.38;0.38;;;;;;;21.73;31.11;99389.25;4952327;28;20080;-82
2023/03/07 03:46:18;;;;;;;0.82;0.45;;;;;;;21.65;30.88;99379.78;5024619;28;20037;-82
2023/03/07 03:48:51;;;;;;;0.52;0.30;;;;;;;21.68;31.29;99389.09;4982335;28;20107;-83
2023/03/07 03:51:17;;;;;;;1.50;0.70;;;;;;;21.64;31.43;99394.06;5028879;28;20060;-82
2023/03/07 03:53:42;;;;;;;0.70;0.50;;;;;;;21.63;31.42;99391.63;4986794;28;20041;-83
2023/03/07 03:56:11;;;;;;;0.73;0.45;;;;;;;21.62;31.19;99397.97;5021313;28;20391;-84
2023/03/07 03:58:37;;;;;;;1.25;0.35;;;;;;;21.55;31.28;99387.47;4979361;28;20569;-83
2023/03/07 04:01:08;;;;;;;1.08;0.63;;;;;;;21.58;31.42;99392.31;5016945;28;20038;-82
2023/03/07 04:03:36;;;;;;;0.45;0.20;;;;;;;21.55;31.54;99389.31;4980123;28;20048;-83
2023/03/07 04:06:04;;;;;;;0.40;0.40;;;;;;;21.54;31.27;99396.44;5022655;28;20137;-83
2023/03/07 04:08:30;;;;;;;0.38;0.38;;;;;;;21.53;31.38;99401.97;4987852;28;20025;-83
2023/03/07 04:10:56;;;;;;;0.90;0.47;;;;;;;21.50;31.44;99400.56;5012421;28;20049;-83
2023/03/07 04:13:22;;;;;;;0.60;0.35;;;;;;;21.50;31.38;99394.47;4988063;28;20053;-83
2023/03/07 04:15:50;;;;;;;1.02;0.70;;;;;;;21.50;31.37;99405.88;5023927;28;20034;-83
2023/03/07 04:18:18;;;;;;;2.25;0.63;;;;;;;21.41;31.62;99391.34;4979907;28;20902;-84
2023/03/07 04:20:44;;;;;;;0.52;0.32;;;;;;;21.37;31.51;99385.69;5024642;28;20044;-84
2023/03/07 04:23:10;;;;;;;0.98;0.47;;;;;;;21.47;31.42;99394.91;4963938;28;20046;-83
2023/03/07 04:25:36;;;;;;;1.17;0.70;;;;;;;21.44;31.80;99396.19;5019052;28;20044;-84
2023/03/07 04:28:02;;;;;;;1.20;0.60;;;;;;;21.26;31.40;99373.19;4987574;28;21315;-83
2023/03/07 04:30:28;;;;;;;2.67;0.60;;;;;;;21.40;31.38;99387.88;5024347;28;20049;-84
2023/03/07 04:32:54;;;;;;;0.45;0.45;;;;;;;21.43;31.59;99391.91;4989514;28;20041;-84
2023/03/07 04:35:20;;;;;;;1.02;0.40;;;;;;;21.30;31.62;99378.84;4996730;28;20085;-83
2023/03/07 04:37:45;;;;;;;1.35;0.68;;;;;;;21.40;31.60;99392.38;5016911;28;20034;-83
2023/03/07 04:40:12;;;;;;;0.70;0.57;;;;;;;21.33;31.45;99383.69;4988566;28;20037;-84
2023/03/07 04:42:38;;;;;;;0.20;0.20;;;;;;;21.36;31.59;99392.03;5018727;28;20071;-84
2023/03/07 04:45:04;;;;;;;0.77;0.50;;;;;;;21.36;31.44;99388.53;4989336;28;20033;-83
2023/03/07 04:47:30;;;;;;;1.13;0.50;;;;;;;21.37;31.51;99387.53;5004903;28;20088;-84
2023/03/07 04:49:56;;;;;;;0.30;0.30;;;;;;;21.39;31.48;99391.56;4988618;28;20075;-84
2023/03/07 04:52:21;;;;;;;0.65;0.50;;;;;;;21.39;31.65;99388.09;5023372;28;20042;-83
2023/03/07 04:54:48;;;;;;;0.95;0.63;;;;;;;21.38;31.43;99386.50;4983957;28;20041;-84
2023/03/07 04:57:13;;;;;;;1.15;0.40;;;;;;;21.38;31.37;99378.56;5020983;28;20539;-83
2023/03/07 04:59:39;;;;;;;1.73;0.50;;;;;;;21.30;31.69;99369.06;4983331;28;20412;-83
2023/03/07 05:02:07;;;;;;;0.40;0.20;;;;;;;21.36;31.54;99380.59;5005789;28;20033;-83
2023/03/07 05:04:33;;;;;;;1.00;0.52;;;;;;;21.27;31.64;99376.66;4967473;28;20119;-83
2023/03/07 05:06:59;;;;;;;0.90;0.52;;;;;;;21.38;31.56;99391.78;5004611;28;20288;-83
2023/03/07 05:09:25;;;;;;;0.77;0.60;;;;;;;21.48;31.37;99388.59;4979820;28;20946;-83
2023/03/07 05:11:51;;;;;;;0.82;0.40;;;;;;;21.66;30.99;99392.00;5018733;28;20040;-83
2023/03/07 05:14:17;;;;;;;1.17;0.40;;;;;;;21.70;31.12;99390.50;4977844;28;20393;-83
2023/03/07 05:16:43;;;;;;;1.02;0.32;;;;;;;21.70;30.97;99384.38;5013678;28;20025;-83
2023/03/07 05:19:09;;;;;;;1.70;0.55;;;;;;;21.62;30.87;99374.94;4949855;28;20544;-83
2023/03/07 05:21:38;;;;;;;0.77;0.43;;;;;;;21.67;30.96;99390.16;5019969;28;20018;-82
2023/03/07 05:24:08;;;;;;;0.50;0.43;;;;;;;21.62;31.26;99387.38;4995464;28;20056;-82
2023/03/07 05:26:34;;;;;;;0.85;0.40;;;;;;;21.54;31.14;99371.78;4999654;28;20494;-82
2023/03/07 05:29:01;;;;;;;0.73;0.35;;;;;;;21.61;31.29;99385.75;5003850;28;20470;-82
2023/03/07 05:31:27;;;;;;;1.08;0.40;;;;;;;21.58;31.38;99400.28;4992299;28;20033;-82
2023/03/07 05:33:53;;;;;;;0.40;0.38;;;;;;;21.46;31.38;99378.22;5013622;28;20041;-83
2023/03/07 05:36:19;;;;;;;0.32;0.32;;;;;;;21.53;31.52;99396.66;4986888;28;20057;-82
2023/03/07 05:38:44;;;;;;;1.77;0.73;;;;;;;21.44;31.19;99379.47;5023998;28;20118;-82
2023/03/07 05:41:11;;;;;;;0.57;0.30;;;;;;;21.51;31.13;99388.13;4966904;28;20490;-83
2023/03/07 05:43:37;;;;;;;0.35;0.30;;;;;;;21.49;31.35;99380.41;5023605;28;20045;-82
2023/03/07 05:46:03;;;;;;;0.95;0.60;;;;;;;21.41;31.21;99373.59;4987301;28;20042;-82
2023/03/07 05:48:28;;;;;;;0.52;0.45;;;;;;;21.45;31.19;99387.19;5010150;28;20060;-82
2023/03/07 05:50:59;;;;;;;0.90;0.55;;;;;;;21.45;31.52;99399.63;4964664;28;20085;-82
2023/03/07 05:53:24;;;;;;;0.88;0.30;;;;;;;21.44;31.44;99398.03;5022639;28;20048;-83
2023/03/07 05:55:50;;;;;;;0.50;0.40;;;;;;;21.43;31.66;99402.50;4982329;28;20195;-82
2023/03/07 05:58:17;;;;;;;0.60;0.30;;;;;;;21.38;31.52;99394.44;5020407;28;20048;-82
2023/03/07 06:00:44;;;;;;;0.57;0.47;;;;;;;21.39;31.42;99407.44;4981615;28;20040;-83
2023/03/07 06:03:10;;;;;;;1.02;0.50;;;;;;;21.37;31.35;99393.63;5017536;28;20112;-82
2023/03/07 06:05:36;;;;;;;1.35;0.55;;;;;;;21.36;31.64;99399.97;4977673;28;20057;-83
2023/03/07 06:08:04;;;;;;;1.23;1.00;;;;;;;21.31;31.65;99388.41;5019975;28;20037;-82
2023/03/07 06:10:29;;;;;;;2.15;0.70;;;;;;;21.28;31.47;99386.22;4980744;28;20452;-82
2023/03/07 06:12:55;;;;;;;0.32;0.28;;;;;;;21.27;31.41;99385.41;5001889;28;20084;-82
2023/03/07 06:15:22;;;;;;;0.98;0.47;;;;;;;21.32;31.60;99409.34;4970705;28;20673;-82
2023/03/07 06:17:53;;;;;;;0.63;0.60;;;;;;;21.18;31.48;99380.59;5004592;28;20065;-83
2023/03/07 06:20:19;;;;;;;0.88;0.47;;;;;;;21.26;31.48;99398.88;4982380;28;20487;-82
2023/03/07 06:22:46;;;;;;;1.83;0.40;;;;;;;21.29;31.36;99409.00;5017706;28;20061;-82
2023/03/07 06:25:14;;;;;;;0.57;0.43;;;;;;;21.25;31.56;99413.13;4979496;28;20045;-83
2023/03/07 06:27:40;;;;;;;0.20;0.20;;;;;;;21.17;31.54;99392.22;5007998;28;20041;-83
2023/03/07 06:30:08;;;;;;;0.80;0.30;;;;;;;21.27;31.39;99417.16;4977411;28;20069;-83
2023/03/07 06:32:34;;;;;;;0.52;0.30;;;;;;;21.14;31.36;99390.81;5017831;28;20041;-83
2023/03/07 06:35:02;;;;;;;0.47;0.38;;;;;;;21.15;31.71;99399.56;4958545;28;20053;-83
2023/03/07 06:37:28;;;;;;;0.13;0.13;;;;;;;21.24;31.40;99408.84;5011880;28;20082;-83
2023/03/07 06:39:57;;;;;;;0.40;0.20;;;;;;;21.24;31.68;99412.34;5022197;28;20037;-84
2023/03/07 06:42:22;;;;;;;0.40;0.40;;;;;;;21.23;31.56;99421.28;4972332;28;20049;-83
2023/03/07 06:44:48;;;;;;;1.08;0.40;;;;;;;21.23;31.43;99415.97;5002885;28;20046;-83
2023/03/07 06:47:14;;;;;;;0.90;0.47;;;;;;;21.04;31.66;99393.22;4959869;28;20045;-84
2023/03/07 06:49:40;;;;;;;1.58;0.85;;;;;;;21.33;31.38;99423.41;5005190;28;20132;-84
2023/03/07 06:52:06;;;;;;;1.17;0.55;;;;;;;21.44;31.19;99414.72;4967601;28;20041;-83
2023/03/07 06:54:32;;;;;;;0.60;0.35;;;;;;;21.59;30.89;99438.97;5025318;28;20284;-83
2023/03/07 06:56:58;;;;;;;1.58;0.68;;;;;;;21.60;30.93;99443.22;4968427;28;20048;-83
2023/03/07 06:59:23;;;;;;;1.08;0.50;;;;;;;21.59;31.41;99440.81;5018628;28;20043;-84
2023/03/07 07:01:49;;;;;;;2.22;0.47;;;;;;;21.56;30.99;99444.72;4980658;28;20049;-83
2023/03/07 07:04:16;;;;;;;0.98;0.30;;;;;;;21.44;31.15;99412.06;5007803;28;20037;-83
2023/03/07 07:06:42;;;;;;;0.85;0.50;;;;;;;21.52;31.13;99435.59;4980432;28;20759;-83
2023/03/07 07:09:11;;;;;;;0.30;0.20;;;;;;;21.50;31.51;99442.94;5016200;28;20049;-82
2023/03/07 07:11:37;;;;;;;0.47;0.45;;;;;;;21.45;31.33;99436.72;4979283;28;20029;-82
2023/03/07 07:14:06;;;;;;;0.60;0.60;;;;;;;21.49;31.49;99445.81;5018919;28;20044;-83
2023/03/07 07:16:34;;;;;;;1.17;0.60;;;;;;;21.44;31.33;99445.69;4979154;28;20045;-85
2023/03/07 07:18:59;;;;;;;0.95;0.50;;;;;;;21.44;31.70;99445.69;5004464;28;20388;-86
2023/03/07 07:21:25;;;;;;;0.73;0.30;;;;;;;21.45;31.36;99449.94;4981821;28;20037;-84
2023/03/07 07:23:51;;;;;;;2.70;0.98;;;;;;;21.42;31.56;99451.22;5027643;28;20152;-84
2023/03/07 07:26:17;;;;;;;0.70;0.40;;;;;;;21.41;31.58;99447.75;4986267;28;20122;-84
2023/03/07 07:28:42;;;;;;;1.00;0.55;;;;;;;21.38;31.47;99444.75;5022508;28;20034;-85
2023/03/07 07:31:08;;;;;;;0.80;0.50;;;;;;;21.41;31.58;99453.06;4983728;28;20045;-85
2023/03/07 07:33:34;;;;;;;0.77;0.35;;;;;;;21.40;31.47;99458.56;5020822;28;20067;-85
2023/03/07 07:36:01;;;;;;;0.68;0.43;;;;;;;21.35;31.42;99448.63;4985344;28;20030;-82
2023/03/07 07:38:27;;;;;;;1.60;0.57;;;;;;;21.33;31.53;99441.94;5010585;28;20098;-82
2023/03/07 07:40:52;;;;;;;1.17;0.40;;;;;;;21.37;31.64;99459.84;5023053;28;20060;-80
2023/03/07 07:43:18;;;;;;;0.75;0.43;;;;;;;21.35;31.62;99448.63;4980502;28;20834;-81
2023/03/07 07:45:48;;;;;;;1.08;0.40;;;;;;;21.36;31.59;99450.28;5022113;28;20504;-81
2023/03/07 07:48:18;;;;;;;1.93;0.50;;;;;;;21.31;31.52;99444.00;4969578;28;20034;-81
2023/03/07 07:50:45;;;;;;;0.80;0.40;;;;;;;21.42;31.56;99467.09;5005491;28;21187;-81
2023/03/07 07:53:12;;;;;;;1.05;0.70;;;;;;;21.41;31.54;99460.19;4983498;28;20049;-81
2023/03/07 07:55:38;;;;;;;0.52;0.52;;;;;;;21.43;31.63;99476.66;4991124;28;20117;-81
2023/03/07 07:58:03;;;;;;;0.95;0.28;;;;;;;21.44;31.61;99474.81;4980269;28;20043;-82
2023/03/07 08:00:30;;;;;;;0.57;0.40;;;;;;;21.22;31.55;99443.47;5019474;28;20573;-83
2023/03/07 08:02:57;;;;;;;0.43;0.40;;;;;;;21.32;31.61;99464.16;4981631;28;20442;-82
2023/03/07 08:05:23;;;;;;;0.65;0.32;;;;;;;21.29;31.60;99451.38;5025086;28;20042;-81
2023/03/07 08:07:49;;;;;;;0.75;0.52;;;;;;;21.32;31.67;99458.88;4980021;28;20052;-81
2023/03/07 08:10:16;;;;;;;1.30;0.60;;;;;;;21.39;31.26;99473.66;5002508;28;20045;-80
2023/03/07 08:12:50;;;;;;;1.80;0.50;;;;;;;21.35;31.67;99471.66;4978526;28;20053;-81
2023/03/07 08:15:15;;;;;;;0.50;0.50;;;;;;;21.38;31.70;99472.03;5027339;28;20044;-82
2023/03/07 08:17:41;;;;;;;0.80;0.45;;;;;;;21.31;31.59;99468.66;4977467;28;20046;-80
2023/03/07 08:20:08;;;;;;;0.45;0.30;;;;;;;21.36;31.58;99473.28;5025163;28;20057;-81
2023/03/07 08:22:35;;;;;;;1.30;0.73;;;;;;;21.34;31.57;99470.03;4980351;28;20041;-82
2023/03/07 08:25:01;;;;;;;0.60;0.38;;;;;;;21.26;31.47;99460.56;5013394;28;20033;-82
2023/03/07 08:27:27;;;;;;;1.17;0.77;;;;;;;21.34;31.56;99467.38;4984071;28;20038;-82
2023/03/07 08:29:52;;;;;;;0.38;0.30;;;;;;;21.17;31.67;99450.44;4993615;28;20087;-82
2023/03/07 08:32:18;;;;;;;0.17;0.17;;;;;;;21.29;31.66;99470.72;4984362;28;20041;-81
2023/03/07 08:34:43;;;;;;;1.48;0.60;;;;;;;21.33;31.57;99474.53;5026307;28;20378;-81
2023/03/07 08:37:09;;;;;;;0.73;0.30;;;;;;;21.34;31.64;99475.34;4973786;28;20523;-80
2023/03/07 08:39:35;;;;;;;0.50;0.47;;;;;;;21.33;31.43;99476.38;5014256;28;20403;-80
2023/03/07 08:42:01;;;;;;;0.20;0.20;;;;;;;21.31;31.33;99475.78;5021870;28;20037;-81
2023/03/07 08:44:26;;;;;;;0.77;0.47;;;;;;;21.33;31.59;99476.38;4979859;28;20464;-81
2023/03/07 08:46:52;;;;;;;0.63;0.30;;;;;;;21.29;31.25;99476.00;5020725;28;20115;-83
2023/03/07 08:49:17;;;;;;;0.70;0.60;;;;;;;21.32;31.33;99485.34;4981071;28;20069;-81
2023/03/07 08:51:45;;;;;;;0.40;0.30;;;;;;;21.31;31.59;99489.81;5016618;28;20050;-82
2023/03/07 08:54:11;;;;;;;0.73;0.52;;;;;;;21.23;31.38;99481.34;4978183;28;20179;-81
2023/03/07 08:56:37;;;;;;;0.80;0.25;;;;;;;21.32;31.57;99494.09;5017570;28;20030;-81
2023/03/07 08:59:02;;;;;;;0.52;0.40;;;;;;;21.31;31.53;99495.13;4983218;28;20073;-81
2023/03/07 09:01:28;;;;;;;0.90;0.52;;;;;;;21.22;31.48;99496.44;5017191;28;20053;-82
2023/03/07 09:03:53;;;;;;;1.23;0.55;;;;;;;21.42;31.13;99518.22;4983740;28;20053;-78
2023/03/07 09:06:20;;;;;;;0.50;0.10;;;;;;;21.53;31.42;99523.78;5022444;28;20400;-80
2023/03/07 09:08:46;;;;;;;0.70;0.30;;;;;;;21.59;31.41;99512.31;4972421;28;20041;-79
2023/03/07 09:11:14;;;;;;;0.52;0.38;;;;;;;21.63;31.32;99505.53;5022120;28;20033;-79
2023/03/07 09:13:40;;;;;;;0.70;0.40;;;;;;;21.74;31.49;99509.28;4995451;28;20033;-81
2023/03/07 09:16:07;;;;;;;0.38;0.38;;;;;;;21.63;31.53;99508.19;5018307;28;20515;-80
2023/03/07 09:18:33;;;;;;;1.05;0.35;;;;;;;21.71;31.39;99529.88;4973022;28;20380;-78
2023/03/07 09:21:02;;;;;;;0.65;0.40;;;;;;;21.73;31.34;99521.75;5015856;28;20056;-78
2023/03/07 09:23:29;;;;;;;0.43;0.32;;;;;;;21.67;31.92;99527.91;4974768;28;20042;-82
2023/03/07 09:25:57;;;;;;;0.20;0.10;;;;;;;21.64;31.55;99529.16;5023245;28;20025;-81
2023/03/07 09:28:23;;;;;;;0.70;0.40;;;;;;;21.61;31.43;99534.91;4975816;28;20048;-82
2023/03/07 09:30:48;;;;;;;0.50;0.45;;;;;;;21.59;31.82;99530.88;5019404;28;20045;-82
2023/03/07 09:33:14;;;;;;;0.35;0.30;;;;;;;21.57;31.52;99517.84;4978221;28;20040;-83
2023/03/07 09:35:40;;;;;;;0.60;0.50;;;;;;;21.29;31.81;99486.59;5001044;28;20033;-82
2023/03/07 09:38:05;;;;;;;0.60;0.50;;;;;;;21.47;31.76;99528.16;4973592;28;20038;-82
2023/03/07 09:40:31;;;;;;;0.65;0.30;;;;;;;21.40;31.86;99519.47;5008200;28;20633;-82
2023/03/07 09:43:15;;;;;;;1.27;0.73;;;;;;;21.42;31.61;99526.16;5018121;28;20037;-82
2023/03/07 09:46:17;;;;;;;0.40;0.40;;;;;;;21.39;31.64;99523.97;4971648;28;20033;-82
2023/03/07 09:49:01;;;;;;;0.38;0.38;;;;;;;21.39;31.82;99526.63;5038380;28;20502;-82
2023/03/07 09:51:39;;;;;;;0.38;0.30;;;;;;;21.39;31.68;99525.81;4995057;28;20048;-81
2023/03/07 09:54:09;;;;;;;0.82;0.40;;;;;;;21.36;31.50;99518.28;5010664;28;20060;-81
2023/03/07 09:56:57;;;;;;;0.17;0.17;;;;;;;21.38;31.54;99526.84;5006554;28;20042;-83
2023/03/07 09:59:40;;;;;;;0.28;0.28;;;;;;;21.34;31.57;99523.81;4984738;28;20120;-84
2023/03/07 10:02:19;;;;;;;0.82;0.40;;;;;;;21.36;31.50;99529.72;5020321;28;20099;-83
2023/03/07 10:04:54;;;;;;;1.40;0.60;;;;;;;21.34;31.54;99530.94;4988970;28;20628;-83
2023/03/07 10:07:24;;;;;;;0.50;0.30;;;;;;;21.25;31.39;99513.75;5024809;28;20072;-83
2023/03/07 10:10:32;;;;;;;0.52;0.52;;;;;;;21.34;31.51;99529.09;4959688;28;20042;-83
2023/03/07 10:13:23;;;;;;;0.60;0.47;;;;;;;21.29;31.50;99536.91;4984141;28;20113;-83
2023/03/07 10:16:14;;;;;;;0.90;0.47;;;;;;;21.35;31.67;99543.94;4976093;28;20761;-83
2023/03/07 10:19:17;;;;;;;0.80;0.65;;;;;;;21.32;31.45;99536.47;5017284;28;20787;-83
2023/03/07 10:21:49;;;;;;;0.55;0.50;;;;;;;21.35;31.62;99540.50;5018693;28;20045;-84
2023/03/07 10:24:31;;;;;;;1.45;0.65;;;;;;;21.31;31.67;99549.91;4975088;28;20048;-83
2023/03/07 10:27:05;;;;;;;0.38;0.38;;;;;;;21.36;31.49;99552.72;5018711;28;20106;-83
2023/03/07 10:29:47;;;;;;;1.05;0.60;;;;;;;21.25;31.46;99525.13;4980221;28;20124;-83
2023/03/07 10:32:40;;;;;;;0.90;0.40;;;;;;;21.32;31.53;99536.47;5023886;28;20442;-83
2023/03/07 10:35:12;;;;;;;0.75;0.50;;;;;;;21.34;31.48;99541.53;4980826;28;20037;-83
2023/03/07 10:38:10;;;;;;;0.98;0.65;;;;;;;21.32;31.44;99533.81;5013396;28;20464;-84
2023/03/07 10:40:40;;;;;;;0.43;0.30;;;;;;;21.35;31.32;99538.66;4980130;28;20753;-83
2023/03/07 10:43:06;;;;;;;0.35;0.35;;;;;;;21.27;31.42;99531.03;5016836;28;20042;-83
2023/03/07 10:45:32;;;;;;;1.42;0.90;;;;;;;21.35;31.23;99543.16;4969092;28;20045;-82
2023/03/07 10:48:04;;;;;;;1.25;0.60;;;;;;;21.37;31.43;99541.13;5016392;28;20033;-82
2023/03/07 10:50:54;;;;;;;0.40;0.32;;;;;;;21.35;31.35;99543.16;4979420;28;20060;-82
2023/03/07 10:53:29;;;;;;;0.90;0.57;;;;;;;21.33;31.16;99538.06;5023531;28;20033;-82
2023/03/07 10:56:09;;;;;;;1.23;0.60;;;;;;;21.34;31.37;99546.81;4978372;28;20487;-82
2023/03/07 10:58:34;;;;;;;1.17;0.30;;;;;;;21.33;31.39;99534.63;5016484;28;20033;-82
2023/03/07 11:01:01;;;;;;;0.65;0.40;;;;;;;21.33;31.11;99547.84;4959992;28;20042;-82
2023/03/07 11:03:37;;;;;;;0.80;0.38;;;;;;;21.24;31.41;99520.03;5021634;28;20570;-82
2023/03/07 11:06:04;;;;;;;0.95;0.47;;;;;;;21.36;31.23;99550.06;4973709;28;20048;-81
2023/03/07 11:08:34;;;;;;;0.52;0.20;;;;;;;21.27;31.31;99527.56;5008871;28;20071;-82
2023/03/07 11:11:03;;;;;;;1.08;0.50;;;;;;;21.32;31.31;99531.16;4951596;28;20049;-83
2023/03/07 11:13:30;;;;;;;0.98;0.50;;;;;;;21.34;31.34;99534.41;5021481;28;20037;-82
2023/03/07 11:16:17;;;;;;;0.85;0.40;;;;;;;21.36;31.12;99540.31;4974574;28;20072;-82
2023/03/07 11:18:44;;;;;;;1.27;0.43;;;;;;;21.37;31.20;99530.53;5018423;28;20046;-83
2023/03/07 11:21:32;;;;;;;1.15;0.40;;;;;;;21.36;31.40;99527.06;4952363;28;20038;-83
2023/03/07 11:24:03;;;;;;;1.73;0.90;;;;;;;21.21;31.30;99509.88;5017457;28;20113;-84
2023/03/07 11:26:32;;;;;;;1.33;0.50;;;;;;;21.35;31.35;99525.41;4986727;28;20037;-82
2023/03/07 11:29:10;;;;;;;0.55;0.52;;;;;;;21.31;31.10;99518.94;5013418;28;20030;-82
2023/03/07 11:31:55;;;;;;;0.55;0.52;;;;;;;21.36;31.44;99526.22;5004748;28;20038;-83
2023/03/07 11:34:34;;;;;;;0.98;0.63;;;;;;;21.37;31.49;99522.56;4958246;28;23852;-82
2023/03/07 11:37:22;;;;;;;0.47;0.30;;;;;;;21.35;31.12;99528.06;5030840;28;20092;-81
2023/03/07 11:39:56;;;;;;;1.27;0.82;;;;;;;21.31;31.36;99511.00;4973745;28;20042;-82
2023/03/07 11:42:33;;;;;;;0.77;0.40;;;;;;;21.32;31.31;99514.47;5009668;28;20045;-82